Time;durP1;ratioP1;P1;durP2;ratioP2;P2;SDS_P1;SDS_P2;PMS_P1;PMS_P2;Temp;Humidity;BMP_temperature;BMP_pressure;BME280_temperature;BME280_humidity;BME280_pressure;Samples;Min_cycle;Max_cycle;Signal;HPM_P1;HPM_P2
2021/10/30 00:00:33;;;;;;;1.80;1.30;;;19.30;84.10;;;;;;5028362;28;20025;-75
2021/10/30 00:02:59;;;;;;;5.05;1.50;;;19.40;84.30;;;;;;5028387;28;20047;-76
2021/10/30 00:05:24;;;;;;;1.52;1.10;;;19.40;85.20;;;;;;5028650;28;20041;-76
2021/10/30 00:07:50;;;;;;;1.90;1.10;;;19.40;85.50;;;;;;5028296;28;20075;-77
2021/10/30 00:10:16;;;;;;;2.05;1.27;;;19.40;86.10;;;;;;5028462;28;20168;-76
2021/10/30 00:12:43;;;;;;;2.25;1.63;;;19.40;86.40;;;;;;5028144;28;20049;-76
2021/10/30 00:15:10;;;;;;;2.47;1.20;;;19.40;86.40;;;;;;5028460;28;20066;-76
2021/10/30 00:17:35;;;;;;;2.05;1.02;;;19.40;86.60;;;;;;5028194;28;20021;-76
2021/10/30 00:20:02;;;;;;;2.50;1.30;;;19.40;86.70;;;;;;5028502;28;20092;-76
2021/10/30 00:22:29;;;;;;;3.05;1.50;;;19.30;86.70;;;;;;5028188;28;20041;-77
2021/10/30 00:24:55;;;;;;;1.80;1.02;;;19.30;86.90;;;;;;5028534;28;20139;-77
2021/10/30 00:27:21;;;;;;;2.63;1.10;;;19.30;86.80;;;;;;5030412;28;20029;-76
2021/10/30 00:29:47;;;;;;;4.78;1.67;;;19.30;86.80;;;;;;5031563;28;20080;-76
2021/10/30 00:32:12;;;;;;;1.27;0.95;;;19.30;86.80;;;;;;5031579;28;20018;-76
2021/10/30 00:34:38;;;;;;;3.10;1.38;;;19.30;87.00;;;;;;5031595;28;20059;-77
2021/10/30 00:37:04;;;;;;;3.33;1.25;;;19.30;86.80;;;;;;5031687;28;20079;-77
2021/10/30 00:39:30;;;;;;;2.28;1.33;;;19.20;86.70;;;;;;5030030;28;20036;-77
2021/10/30 00:41:56;;;;;;;4.13;1.42;;;19.20;86.80;;;;;;5031921;28;20025;-76
2021/10/30 00:44:22;;;;;;;2.20;1.10;;;19.20;86.90;;;;;;5031638;28;20063;-76
2021/10/30 00:46:50;;;;;;;2.25;1.27;;;19.20;86.90;;;;;;5030843;28;20038;-77
2021/10/30 00:49:18;;;;;;;1.90;1.10;;;19.20;87.00;;;;;;5031533;28;20018;-75
2021/10/30 00:51:47;;;;;;;2.03;1.48;;;19.20;86.90;;;;;;5031221;28;20029;-76
2021/10/30 00:54:14;;;;;;;2.72;1.38;;;19.20;86.70;;;;;;5031435;28;20022;-77
2021/10/30 00:56:42;;;;;;;2.10;1.20;;;19.20;87.50;;;;;;5031285;28;20029;-77
2021/10/30 00:59:12;;;;;;;2.03;1.30;;;19.10;86.70;;;;;;5031368;28;20022;-76
2021/10/30 01:01:40;;;;;;;1.63;1.17;;;19.10;86.60;;;;;;5031145;28;20022;-76
2021/10/30 01:04:06;;;;;;;1.92;1.05;;;19.10;86.60;;;;;;5031270;28;20030;-76
2021/10/30 01:06:36;;;;;;;2.15;1.20;;;19.10;86.70;;;;;;5030987;28;20037;-77
2021/10/30 01:09:03;;;;;;;2.00;1.10;;;19.10;87.40;;;;;;5031120;28;20150;-75
2021/10/30 01:11:30;;;;;;;1.60;1.00;;;19.10;86.60;;;;;;5031057;28;20033;-75
2021/10/30 01:13:56;;;;;;;3.42;1.42;;;19.10;87.40;;;;;;5031355;28;20055;-77
2021/10/30 01:16:22;;;;;;;2.20;1.05;;;19.10;86.50;;;;;;5030930;28;20026;-77
2021/10/30 01:18:48;;;;;;;2.40;1.25;;;19.10;86.50;;;;;;5030774;28;20501;-76
2021/10/30 01:21:26;;;;;;;1.90;1.10;;;19.10;87.20;;;;;;5030917;28;20033;-77
2021/10/30 01:23:53;;;;;;;2.20;0.95;;;19.10;86.50;;;;;;5031127;28;20030;-76
2021/10/30 01:26:21;;;;;;;1.73;1.17;;;19.00;86.30;;;;;;5031108;28;20401;-77
2021/10/30 01:28:47;;;;;;;1.92;1.20;;;19.00;86.30;;;;;;5030526;28;20036;-76
2021/10/30 01:31:13;;;;;;;2.33;1.38;;;19.00;86.30;;;;;;5030718;28;20033;-77
2021/10/30 01:33:42;;;;;;;2.15;1.20;;;19.00;86.30;;;;;;5030587;28;20380;-76
2021/10/30 01:36:08;;;;;;;1.83;1.15;;;19.00;86.10;;;;;;5030570;28;20374;-77
2021/10/30 01:38:34;;;;;;;1.70;1.10;;;19.00;86.10;;;;;;5030530;28;20021;-75
2021/10/30 01:41:00;;;;;;;1.67;1.30;;;19.00;86.20;;;;;;5030629;28;20112;-76
2021/10/30 01:43:26;;;;;;;1.60;1.17;;;19.00;86.10;;;;;;5030827;28;20096;-77
2021/10/30 01:45:51;;;;;;;1.95;1.00;;;19.00;86.30;;;;;;5030441;28;20045;-76
2021/10/30 01:48:18;;;;;;;1.73;1.20;;;18.90;86.20;;;;;;5030813;28;20040;-77
2021/10/30 01:50:44;;;;;;;1.40;0.90;;;18.90;86.10;;;;;;5030293;28;20029;-77
2021/10/30 01:53:10;;;;;;;1.90;1.30;;;18.90;86.00;;;;;;5030579;28;20445;-77
2021/10/30 01:55:38;;;;;;;1.73;1.08;;;18.90;86.00;;;;;;5029824;28;20052;-76
2021/10/30 01:58:05;;;;;;;1.80;1.05;;;18.90;85.90;;;;;;5030551;28;20481;-77
2021/10/30 02:00:31;;;;;;;1.23;0.80;;;18.90;85.90;;;;;;5030153;28;20557;-77
2021/10/30 02:02:57;;;;;;;2.58;1.50;;;18.90;85.90;;;;;;5030497;28;20104;-77
2021/10/30 02:05:22;;;;;;;2.03;1.02;;;18.90;85.90;;;;;;5030647;28;20072;-77
2021/10/30 02:07:48;;;;;;;2.95;1.27;;;18.90;85.90;;;;;;5029985;28;20032;-77
2021/10/30 02:10:15;;;;;;;1.50;1.00;;;18.80;85.80;;;;;;5030203;28;20029;-75
2021/10/30 02:12:41;;;;;;;2.58;1.40;;;18.90;85.80;;;;;;5030003;28;20093;-76
2021/10/30 02:15:07;;;;;;;1.95;1.20;;;18.90;85.80;;;;;;5030291;28;20119;-77
2021/10/30 02:17:33;;;;;;;2.63;1.13;;;18.80;85.70;;;;;;5029965;28;20401;-75
2021/10/30 02:19:59;;;;;;;1.65;1.10;;;18.80;85.60;;;;;;5029940;28;20093;-76
2021/10/30 02:22:25;;;;;;;2.53;1.20;;;18.80;85.70;;;;;;5030310;28;20053;-76
2021/10/30 02:24:51;;;;;;;1.77;1.08;;;18.80;85.70;;;;;;5029654;28;20063;-77
2021/10/30 02:27:17;;;;;;;2.17;1.42;;;18.80;85.60;;;;;;5030025;28;20030;-77
2021/10/30 02:29:43;;;;;;;1.70;1.10;;;18.80;85.60;;;;;;5029806;28;20029;-75
2021/10/30 02:32:09;;;;;;;1.73;1.08;;;18.80;85.50;;;;;;5029970;28;20017;-76
2021/10/30 02:34:35;;;;;;;1.67;1.10;;;18.80;85.50;;;;;;5029630;28;20112;-76
2021/10/30 02:37:01;;;;;;;2.75;1.10;;;18.80;85.40;;;;;;5029824;28;20065;-76
2021/10/30 02:39:27;;;;;;;2.58;1.38;;;18.80;85.40;;;;;;5029915;28;20026;-76
2021/10/30 02:41:53;;;;;;;4.72;1.17;;;18.80;85.50;;;;;;5030080;28;20018;-75
2021/10/30 02:44:18;;;;;;;2.20;1.30;;;18.80;85.50;;;;;;5029631;28;20120;-76
2021/10/30 02:46:44;;;;;;;1.88;1.02;;;18.70;85.40;;;;;;5029331;28;20140;-76
2021/10/30 02:49:10;;;;;;;2.40;1.25;;;18.70;85.50;;;;;;5028966;28;20026;-76
2021/10/30 02:51:35;;;;;;;2.22;1.45;;;18.70;85.40;;;;;;5029346;28;20485;-76
2021/10/30 02:54:01;;;;;;;1.92;1.00;;;18.70;85.40;;;;;;5029590;28;20397;-76
2021/10/30 02:56:26;;;;;;;1.80;1.15;;;18.70;85.40;;;;;;5029603;28;20032;-76
2021/10/30 02:58:52;;;;;;;1.77;1.08;;;18.70;85.30;;;;;;5029758;28;20017;-75
2021/10/30 03:01:18;;;;;;;1.67;1.08;;;18.70;85.40;;;;;;5028246;28;20496;-77
2021/10/30 03:03:43;;;;;;;1.58;1.10;;;18.70;85.40;;;;;;5029221;28;20021;-76
2021/10/30 03:06:09;;;;;;;2.70;1.42;;;18.70;85.40;;;;;;5028016;28;20497;-76
2021/10/30 03:08:35;;;;;;;3.13;1.40;;;18.70;85.30;;;;;;5029126;28;20026;-75
2021/10/30 03:11:01;;;;;;;2.80;1.40;;;18.70;85.40;;;;;;5029354;28;20029;-75
2021/10/30 03:13:28;;;;;;;1.65;1.00;;;18.70;85.40;;;;;;5029196;28;20022;-75
2021/10/30 03:15:55;;;;;;;1.70;1.00;;;18.60;85.20;;;;;;5029582;28;20109;-76
2021/10/30 03:18:21;;;;;;;2.25;1.15;;;18.70;85.20;;;;;;5029173;28;20094;-76
2021/10/30 03:20:48;;;;;;;2.65;1.60;;;18.70;85.30;;;;;;5028882;28;20043;-76
2021/10/30 03:23:13;;;;;;;2.05;1.40;;;18.60;85.30;;;;;;5029016;28;20108;-76
2021/10/30 03:25:39;;;;;;;2.10;1.45;;;18.70;85.40;;;;;;5028850;28;20109;-75
2021/10/30 03:28:05;;;;;;;2.30;1.52;;;18.60;85.20;;;;;;5029151;28;20028;-77
2021/10/30 03:30:30;;;;;;;2.47;1.50;;;18.70;85.40;;;;;;5027501;28;20523;-75
2021/10/30 03:32:56;;;;;;;1.85;1.35;;;18.60;85.30;;;;;;5029269;28;20537;-76
2021/10/30 03:35:22;;;;;;;2.60;1.70;;;18.60;85.30;;;;;;5029201;28;20530;-76
2021/10/30 03:37:48;;;;;;;2.03;1.42;;;18.60;85.30;;;;;;5028802;28;20496;-75
2021/10/30 03:40:13;;;;;;;1.98;1.40;;;18.60;86.00;;;;;;5028835;28;20033;-76
2021/10/30 03:42:39;;;;;;;1.63;1.17;;;18.60;85.20;;;;;;5028706;28;20031;-75
2021/10/30 03:45:06;;;;;;;1.48;1.17;;;18.60;85.20;;;;;;5028578;28;20037;-76
2021/10/30 03:47:32;;;;;;;1.85;1.15;;;18.60;85.20;;;;;;5028509;28;20109;-76
2021/10/30 03:49:58;;;;;;;2.70;1.50;;;18.60;85.20;;;;;;5028657;28;20462;-76
2021/10/30 03:52:24;;;;;;;2.50;1.20;;;18.60;85.20;;;;;;5028978;28;20026;-76
2021/10/30 03:54:50;;;;;;;2.92;1.40;;;18.60;85.20;;;;;;5028445;28;20397;-76
2021/10/30 03:57:16;;;;;;;2.38;1.20;;;18.60;85.20;;;;;;5028712;28;20018;-76
2021/10/30 03:59:42;;;;;;;2.45;1.52;;;18.60;85.30;;;;;;5028406;28;20056;-77
2021/10/30 04:02:08;;;;;;;2.05;1.60;;;18.60;85.20;;;;;;5028613;28;20055;-76
2021/10/30 04:04:33;;;;;;;1.65;1.17;;;18.50;85.10;;;;;;5028234;28;20473;-77
2021/10/30 04:07:00;;;;;;;1.63;1.23;;;18.50;85.10;;;;;;5028386;28;20408;-77
2021/10/30 04:09:27;;;;;;;2.85;1.50;;;18.60;85.30;;;;;;5029006;28;20480;-76
2021/10/30 04:11:53;;;;;;;2.00;1.40;;;18.60;85.30;;;;;;5028724;28;20034;-76
2021/10/30 04:14:19;;;;;;;2.08;1.50;;;18.50;85.20;;;;;;5028470;28;20026;-77
2021/10/30 04:16:45;;;;;;;3.28;1.40;;;18.50;85.20;;;;;;5028153;28;20022;-76
2021/10/30 04:19:13;;;;;;;2.33;1.25;;;18.50;85.20;;;;;;5028284;28;20056;-77
2021/10/30 04:21:39;;;;;;;2.72;1.73;;;18.50;85.20;;;;;;5028143;28;20021;-76
2021/10/30 04:24:05;;;;;;;3.22;1.10;;;18.50;85.20;;;;;;5028272;28;20061;-75
2021/10/30 04:26:32;;;;;;;4.13;1.40;;;18.50;85.10;;;;;;5027926;28;20486;-76
2021/10/30 04:28:58;;;;;;;2.28;1.67;;;18.50;85.10;;;;;;5028271;28;20034;-76
2021/10/30 04:31:26;;;;;;;2.40;1.50;;;18.50;85.10;;;;;;5028477;28;20121;-76
2021/10/30 04:33:54;;;;;;;3.90;1.50;;;18.50;85.10;;;;;;5028239;28;20021;-75
2021/10/30 04:36:23;;;;;;;3.53;1.52;;;18.50;85.20;;;;;;5028109;28;20359;-76
2021/10/30 04:38:49;;;;;;;2.67;1.48;;;18.50;85.20;;;;;;5027780;28;20029;-75
2021/10/30 04:41:15;;;;;;;3.20;1.77;;;18.50;85.20;;;;;;5028159;28;20074;-75
2021/10/30 04:43:41;;;;;;;2.22;1.38;;;18.50;85.20;;;;;;5027728;28;20474;-76
2021/10/30 04:46:08;;;;;;;2.30;1.17;;;18.40;85.20;;;;;;5027855;28;20064;-75
2021/10/30 04:48:34;;;;;;;2.30;1.60;;;18.50;85.10;;;;;;5027776;28;20018;-76
2021/10/30 04:50:59;;;;;;;2.08;1.40;;;18.50;85.20;;;;;;5027909;28;20085;-75
2021/10/30 04:53:25;;;;;;;2.03;1.20;;;18.50;85.30;;;;;;5028140;28;20105;-76
2021/10/30 04:55:51;;;;;;;3.55;1.60;;;18.40;85.30;;;;;;5027641;28;20029;-75
2021/10/30 04:58:16;;;;;;;2.13;1.35;;;18.40;85.20;;;;;;5027951;28;20030;-75
2021/10/30 05:00:42;;;;;;;1.58;1.20;;;18.40;86.00;;;;;;5027623;28;20018;-75
2021/10/30 05:03:08;;;;;;;3.00;1.15;;;18.40;85.30;;;;;;5026437;28;20116;-76
2021/10/30 05:05:33;;;;;;;1.88;1.38;;;18.50;85.30;;;;;;5027521;28;20136;-75
2021/10/30 05:07:59;;;;;;;2.25;1.55;;;18.40;85.30;;;;;;5027764;28;20029;-75
2021/10/30 05:10:24;;;;;;;2.40;1.50;;;18.40;85.30;;;;;;5028051;28;20040;-75
2021/10/30 05:12:50;;;;;;;2.03;1.33;;;18.40;85.30;;;;;;5030064;28;20022;-74
2021/10/30 05:15:16;;;;;;;3.97;1.67;;;18.50;85.30;;;;;;5031159;28;20524;-76
2021/10/30 05:17:41;;;;;;;2.15;1.40;;;18.40;85.30;;;;;;5030781;28;20035;-76
2021/10/30 05:20:08;;;;;;;2.65;1.23;;;18.50;85.40;;;;;;5029862;28;20026;-76
2021/10/30 05:22:33;;;;;;;2.78;1.33;;;18.40;85.30;;;;;;5029612;28;20025;-76
2021/10/30 05:24:59;;;;;;;2.30;1.38;;;18.40;85.30;;;;;;5030974;28;20396;-76
2021/10/30 05:27:25;;;;;;;3.47;1.40;;;18.40;85.30;;;;;;5031162;28;20025;-76
2021/10/30 05:29:51;;;;;;;2.42;1.55;;;18.40;85.40;;;;;;5029438;28;20029;-77
2021/10/30 05:32:17;;;;;;;2.67;1.40;;;18.40;85.50;;;;;;5030730;28;20049;-76
2021/10/30 05:34:42;;;;;;;1.98;1.27;;;18.40;85.50;;;;;;5030637;28;20052;-76
2021/10/30 05:37:08;;;;;;;3.38;1.90;;;18.40;85.50;;;;;;5030672;28;20025;-76
2021/10/30 05:39:36;;;;;;;2.10;1.58;;;18.40;85.40;;;;;;5030571;28;20025;-76
2021/10/30 05:42:03;;;;;;;2.50;1.55;;;18.40;85.40;;;;;;5030588;28;20034;-77
2021/10/30 05:44:29;;;;;;;2.17;1.50;;;18.40;85.40;;;;;;5030278;28;20061;-77
2021/10/30 05:46:55;;;;;;;3.58;1.75;;;18.40;85.50;;;;;;5039996;28;20115;-76
2021/10/30 05:49:21;;;;;;;2.75;1.30;;;18.30;85.50;;;;;;5050051;28;20105;-76
2021/10/30 05:51:47;;;;;;;2.15;1.52;;;18.30;85.50;;;;;;5049941;28;20423;-75
2021/10/30 05:54:13;;;;;;;1.85;1.10;;;18.30;85.60;;;;;;5037991;28;20039;-76
2021/10/30 05:56:39;;;;;;;3.30;1.63;;;18.40;85.60;;;;;;5049961;28;20370;-76
2021/10/30 05:59:04;;;;;;;2.13;1.30;;;18.40;85.80;;;;;;5049924;28;20035;-76
2021/10/30 06:01:30;;;;;;;4.72;1.65;;;18.30;85.50;;;;;;5048820;28;20097;-77
2021/10/30 06:03:56;;;;;;;2.85;1.42;;;18.40;85.50;;;;;;5049143;28;20064;-76
2021/10/30 06:06:21;;;;;;;3.05;1.42;;;18.40;85.40;;;;;;5050265;28;20035;-76
2021/10/30 06:08:47;;;;;;;2.92;1.58;;;18.40;85.40;;;;;;5050001;28;20029;-77
2021/10/30 06:11:12;;;;;;;2.53;1.60;;;18.40;85.40;;;;;;5050209;28;20032;-76
2021/10/30 06:13:38;;;;;;;2.33;1.48;;;18.40;85.40;;;;;;5049046;28;20023;-76
2021/10/30 06:16:04;;;;;;;2.03;1.48;;;18.40;85.30;;;;;;5047695;28;20047;-75
2021/10/30 06:18:30;;;;;;;2.55;1.50;;;18.50;85.40;;;;;;5049846;28;20116;-76
2021/10/30 06:20:55;;;;;;;1.88;1.30;;;18.50;85.40;;;;;;5050345;27;20033;-76
2021/10/30 06:23:21;;;;;;;3.17;1.30;;;18.50;85.50;;;;;;5048837;28;20059;-77
2021/10/30 06:25:47;;;;;;;2.35;1.40;;;18.50;85.50;;;;;;5047695;28;20064;-77
2021/10/30 06:28:13;;;;;;;2.58;1.60;;;18.60;85.60;;;;;;5049808;28;20489;-78
2021/10/30 06:30:39;;;;;;;3.00;1.10;;;18.60;85.60;;;;;;5047244;28;20575;-78
2021/10/30 06:33:06;;;;;;;5.65;1.83;;;18.60;85.60;;;;;;5049492;28;20041;-78
2021/10/30 06:35:32;;;;;;;3.83;1.70;;;18.60;85.70;;;;;;5053494;28;20073;-78
2021/10/30 06:37:58;;;;;;;2.00;1.13;;;18.60;85.70;;;;;;5049738;28;20049;-78
2021/10/30 06:40:24;;;;;;;2.15;1.40;;;18.70;85.80;;;;;;5051386;27;20450;-77
2021/10/30 06:42:49;;;;;;;2.92;1.42;;;18.70;85.80;;;;;;5049471;28;20029;-76
2021/10/30 06:45:15;;;;;;;5.47;1.40;;;18.70;85.90;;;;;;5049384;28;20077;-76
2021/10/30 06:47:41;;;;;;;3.00;1.42;;;18.80;86.10;;;;;;5093568;27;20364;-76
2021/10/30 06:50:08;;;;;;;3.58;1.67;;;18.80;86.00;;;;;;5053064;27;20021;-76
2021/10/30 06:52:37;;;;;;;2.33;1.67;;;18.80;86.20;;;;;;5049257;28;20026;-77
2021/10/30 06:55:08;;;;;;;4.07;2.08;;;18.80;86.10;;;;;;5049313;28;20056;-76
2021/10/30 06:57:35;;;;;;;3.17;2.05;;;18.90;86.20;;;;;;5048181;28;20049;-76
2021/10/30 07:00:05;;;;;;;3.42;1.98;;;18.80;86.30;;;;;;5085494;27;20085;-76
2021/10/30 07:02:31;;;;;;;4.70;2.25;;;18.90;86.30;;;;;;5048151;28;20409;-77
2021/10/30 07:04:58;;;;;;;3.78;1.95;;;18.90;86.30;;;;;;5034495;28;20037;-77
2021/10/30 07:07:24;;;;;;;3.38;1.95;;;18.90;86.60;;;;;;5039897;28;20445;-77
2021/10/30 07:09:50;;;;;;;3.40;1.80;;;19.00;86.40;;;;;;5034179;28;20067;-77
2021/10/30 07:12:15;;;;;;;4.47;2.25;;;19.00;86.40;;;;;;5037767;28;20028;-76
2021/10/30 07:14:41;;;;;;;5.28;2.17;;;19.00;86.40;;;;;;5035603;28;20025;-76
2021/10/30 07:17:07;;;;;;;2.85;1.65;;;19.00;86.30;;;;;;5039426;28;20050;-77
2021/10/30 07:19:33;;;;;;;5.60;2.05;;;19.00;86.30;;;;;;5042147;28;20066;-77
2021/10/30 07:21:59;;;;;;;5.65;1.98;;;19.00;86.40;;;;;;5043808;28;20032;-78
2021/10/30 07:24:25;;;;;;;3.00;1.77;;;19.00;86.30;;;;;;5037003;28;20415;-77
2021/10/30 07:26:52;;;;;;;2.95;1.70;;;;;;;;;;5037996;28;20066;-81
2021/10/30 07:29:17;;;;;;;2.50;1.40;;;18.90;85.90;;;;;;5032142;28;20033;-89
2021/10/30 07:31:43;;;;;;;4.95;1.60;;;19.20;85.50;;;;;;5039423;27;20025;-78
2021/10/30 07:34:08;;;;;;;5.13;1.55;;;19.20;86.30;;;;;;5047799;28;20400;-78
2021/10/30 07:36:34;;;;;;;5.53;2.13;;;19.20;86.30;;;;;;5033131;28;20059;-77
2021/10/30 07:39:00;;;;;;;2.13;1.65;;;19.20;86.30;;;;;;5031747;28;20041;-77
2021/10/30 07:41:25;;;;;;;3.15;1.58;;;19.10;86.10;;;;;;5036881;28;20081;-83
2021/10/30 07:43:54;;;;;;;3.67;1.50;;;19.10;86.20;;;;;;5039091;28;20077;-78
2021/10/30 07:46:24;;;;;;;3.78;1.92;;;19.10;86.20;;;;;;5038758;28;20033;-77
2021/10/30 07:48:53;;;;;;;3.80;2.15;;;19.10;86.30;;;;;;5032618;28;20074;-77
2021/10/30 07:51:19;;;;;;;4.07;1.27;;;19.10;86.30;;;;;;5046376;28;20029;-77
2021/10/30 07:53:45;;;;;;;6.85;2.00;;;19.10;86.30;;;;;;5037663;28;20504;-79
2021/10/30 07:56:11;;;;;;;4.95;1.52;;;19.10;86.30;;;;;;5042627;28;20025;-78
2021/10/30 07:58:37;;;;;;;3.92;1.63;;;19.10;86.30;;;;;;5039676;28;20416;-78
2021/10/30 08:01:03;;;;;;;3.70;1.52;;;19.10;86.30;;;;;;5041777;28;20035;-77
2021/10/30 08:03:28;;;;;;;2.25;1.17;;;19.10;86.30;;;;;;5037185;28;20021;-77
2021/10/30 08:05:54;;;;;;;2.55;1.52;;;19.10;86.40;;;;;;5034810;28;20077;-78
2021/10/30 08:08:20;;;;;;;4.78;2.10;;;19.00;86.30;;;;;;5044201;28;20017;-77
2021/10/30 08:10:45;;;;;;;4.25;1.67;;;19.10;86.40;;;;;;5031371;28;20062;-78
2021/10/30 08:13:11;;;;;;;4.72;1.38;;;19.10;86.40;;;;;;5040306;28;20108;-78
2021/10/30 08:15:38;;;;;;;3.90;1.42;;;19.00;86.30;;;;;;5037970;28;20025;-78
2021/10/30 08:18:03;;;;;;;4.07;1.60;;;19.10;86.40;;;;;;5033136;28;20028;-77
2021/10/30 08:20:32;;;;;;;5.10;1.67;;;19.00;86.30;;;;;;5043791;28;20100;-78
2021/10/30 08:22:59;;;;;;;5.72;1.55;;;19.00;86.20;;;;;;5033082;28;20154;-78
2021/10/30 08:25:24;;;;;;;3.95;1.65;;;19.00;87.00;;;;;;5038497;28;20112;-77
2021/10/30 08:27:50;;;;;;;2.60;1.30;;;19.00;86.20;;;;;;5040035;28;20030;-78
2021/10/30 08:30:17;;;;;;;4.82;1.70;;;19.00;86.20;;;;;;5031353;28;20033;-78
2021/10/30 08:32:42;;;;;;;2.78;1.85;;;19.00;86.20;;;;;;5043610;28;20401;-78
2021/10/30 08:35:08;;;;;;;4.47;1.38;;;19.00;86.20;;;;;;5034719;28;20017;-78
2021/10/30 08:37:34;;;;;;;2.15;1.35;;;19.00;86.30;;;;;;5036547;28;20025;-77
2021/10/30 08:39:59;;;;;;;3.05;1.40;;;19.00;86.10;;;;;;5041564;28;20017;-78
2021/10/30 08:42:26;;;;;;;3.15;1.48;;;19.00;86.10;;;;;;5031082;28;20028;-78
2021/10/30 08:44:54;;;;;;;3.92;2.13;;;19.00;86.10;;;;;;5042502;28;20030;-78
2021/10/30 08:47:21;;;;;;;1.92;1.48;;;19.00;86.10;;;;;;5037627;28;20027;-78
2021/10/30 08:49:46;;;;;;;3.33;1.30;;;19.00;86.10;;;;;;5038429;28;20429;-78
2021/10/30 08:52:12;;;;;;;4.40;1.98;;;19.00;86.10;;;;;;5046330;28;20029;-78
2021/10/30 08:54:38;;;;;;;2.63;1.10;;;19.00;86.00;;;;;;5033827;28;20125;-78
2021/10/30 08:57:05;;;;;;;2.67;1.58;;;19.00;86.00;;;;;;5044237;28;20502;-78
2021/10/30 08:59:41;;;;;;;4.97;1.40;;;19.00;86.00;;;;;;5032968;28;20034;-77
2021/10/30 09:02:14;;;;;;;2.80;1.55;;;19.00;86.00;;;;;;5109407;27;20023;-77
2021/10/30 09:04:40;;;;;;;2.72;1.40;;;19.00;86.00;;;;;;5031152;28;20041;-77
2021/10/30 09:07:08;;;;;;;2.50;1.42;;;19.00;86.00;;;;;;5050154;28;20036;-79
2021/10/30 09:09:36;;;;;;;2.55;1.52;;;19.00;86.70;;;;;;5043809;28;20040;-79
2021/10/30 09:12:03;;;;;;;2.70;1.42;;;19.00;86.00;;;;;;5040198;28;20113;-79
2021/10/30 09:14:31;;;;;;;5.97;1.73;;;19.00;86.10;;;;;;5041061;28;20032;-81
2021/10/30 09:17:18;;;;;;;4.90;1.80;;;19.00;86.20;;;;;;5040083;28;20077;-79
2021/10/30 09:19:46;;;;;;;3.05;1.88;;;19.00;86.30;;;;;;5039496;28;20391;-83
2021/10/30 09:22:12;;;;;;;3.05;1.30;;;19.10;86.50;;;;;;5039274;28;20079;-82
2021/10/30 09:24:58;;;;;;;2.03;1.40;;;19.20;86.40;;;;;;5038122;28;20049;-82
2021/10/30 09:27:48;;;;;;;4.15;1.30;;;19.30;86.30;;;;;;5041766;28;20127;-82
2021/10/30 09:30:24;;;;;;;2.00;1.13;;;19.40;86.10;;;;;;5040983;28;20033;-81
2021/10/30 09:32:57;;;;;;;2.20;0.80;;;19.50;86.10;;;;;;5039205;28;20029;-81
2021/10/30 09:35:24;;;;;;;3.92;1.20;;;19.60;85.90;;;;;;5043244;28;20097;-80
2021/10/30 09:37:52;;;;;;;5.70;1.50;;;19.70;85.70;;;;;;5042963;28;20373;-83
2021/10/30 09:40:26;;;;;;;4.25;1.40;;;19.80;85.50;;;;;;5033684;28;20079;-76
2021/10/30 09:43:17;;;;;;;8.93;2.53;;;19.80;85.30;;;;;;5034534;28;20473;-76
2021/10/30 09:45:55;;;;;;;6.20;1.85;;;19.90;85.30;;;;;;5037837;28;20421;-77
2021/10/30 09:48:26;;;;;;;4.13;1.80;;;19.90;85.20;;;;;;5037848;28;20026;-77
2021/10/30 09:50:54;;;;;;;5.93;1.33;;;19.90;84.70;;;;;;5034927;28;20392;-77
2021/10/30 09:53:41;;;;;;;2.97;1.33;;;19.90;84.50;;;;;;5041329;28;20018;-76
2021/10/30 09:56:10;;;;;;;4.45;1.10;;;20.10;84.80;;;;;;5044821;28;20025;-78
2021/10/30 09:58:35;;;;;;;3.58;1.10;;;20.10;84.50;;;;;;5037483;28;20033;-78
2021/10/30 10:01:04;;;;;;;10.90;1.92;;;20.20;83.90;;;;;;5042461;28;20033;-79
2021/10/30 10:03:31;;;;;;;6.25;1.20;;;20.20;84.10;;;;;;5048560;28;20058;-79
2021/10/30 10:06:02;;;;;;;6.68;1.40;;;20.30;83.90;;;;;;5041976;28;20040;-79
2021/10/30 10:08:27;;;;;;;5.28;1.05;;;20.30;83.20;;;;;;5045190;28;20021;-76
2021/10/30 10:10:55;;;;;;;3.25;1.10;;;20.40;83.70;;;;;;5043608;28;20027;-80
2021/10/30 10:13:22;;;;;;;3.35;1.10;;;20.70;82.30;;;;;;5037950;28;20021;-78
2021/10/30 10:15:50;;;;;;;7.82;1.73;;;20.70;81.50;;;;;;5047004;28;20085;-80
2021/10/30 10:18:17;;;;;;;4.03;0.85;;;20.60;81.70;;;;;;5046504;28;20116;-81
2021/10/30 10:20:43;;;;;;;3.15;1.10;;;20.60;81.80;;;;;;5032686;28;20112;-80
2021/10/30 10:23:09;;;;;;;5.20;1.23;;;20.60;81.70;;;;;;5038764;28;20025;-81
2021/10/30 10:25:46;;;;;;;4.85;0.90;;;20.70;81.80;;;;;;5043803;28;20097;-80
2021/10/30 10:28:36;;;;;;;2.88;1.10;;;20.70;81.50;;;;;;5032405;28;20025;-77
2021/10/30 10:31:05;;;;;;;1.77;0.90;;;20.60;80.80;;;;;;5039995;28;20063;-78
2021/10/30 10:33:31;;;;;;;2.60;1.10;;;20.70;81.50;;;;;;5048460;28;20021;-78
2021/10/30 10:36:20;;;;;;;2.83;0.98;;;20.70;81.20;;;;;;5048992;28;20036;-77
2021/10/30 10:38:58;;;;;;;7.30;0.90;;;20.70;81.30;;;;;;5033068;28;20033;-83
2021/10/30 10:41:44;;;;;;;1.73;0.85;;;20.70;81.40;;;;;;5038449;28;20073;-83
2021/10/30 10:44:11;;;;;;;1.17;0.70;;;20.70;81.20;;;;;;5033749;28;20036;-82
2021/10/30 10:46:57;;;;;;;2.65;1.00;;;20.80;81.20;;;;;;5029613;28;20093;-80
2021/10/30 10:52:14;;;;;;;1.52;0.70;;;20.80;81.50;;;;;;5046283;28;20463;-84
2021/10/30 10:54:55;;;;;;;3.00;0.90;;;20.80;81.40;;;;;;5032207;28;20048;-85
2021/10/30 10:57:24;;;;;;;5.10;0.95;;;20.80;81.40;;;;;;5040167;28;20026;-82
2021/10/30 10:59:58;;;;;;;1.40;0.80;;;20.90;81.30;;;;;;5041486;28;20021;-81
2021/10/30 11:02:31;;;;;;;1.35;0.65;;;20.90;81.20;;;;;;5038243;28;20128;-81
2021/10/30 11:05:14;;;;;;;3.40;0.98;;;20.90;81.50;;;;;;5042509;28;20073;-80
2021/10/30 11:07:42;;;;;;;3.45;0.93;;;20.90;81.60;;;;;;5036837;28;20022;-79
2021/10/30 11:10:13;;;;;;;1.65;0.90;;;20.90;81.50;;;;;;5028180;28;20031;-81
2021/10/30 11:12:41;;;;;;;2.58;0.93;;;21.00;81.40;;;;;;5045750;28;20087;-81
2021/10/30 11:15:11;;;;;;;1.05;0.80;;;21.00;81.40;;;;;;5041677;28;20026;-79
2021/10/30 11:20:43;;;;;;;5.32;0.73;;;21.00;81.20;;;;;;5032595;28;20112;-81
2021/10/30 11:23:17;;;;;;;1.95;0.90;;;21.00;81.10;;;;;;5043598;28;20393;-77
2021/10/30 11:25:43;;;;;;;4.72;1.00;;;21.00;81.10;;;;;;5036415;28;20462;-82
2021/10/30 11:28:08;;;;;;;5.00;0.88;;;21.10;81.00;;;;;;5039723;28;20021;-78
2021/10/30 11:30:42;;;;;;;3.40;0.70;;;21.00;80.90;;;;;;5030260;28;20588;-81
2021/10/30 11:33:23;;;;;;;3.00;1.00;;;21.00;80.90;;;;;;5035740;28;20017;-80
2021/10/30 11:36:02;;;;;;;2.03;0.80;;;21.00;81.00;;;;;;5037043;28;20090;-83
2021/10/30 11:38:32;;;;;;;2.15;1.20;;;21.00;81.00;;;;;;5037713;28;20041;-79
2021/10/30 11:41:01;;;;;;;4.68;1.00;;;21.00;81.10;;;;;;5038017;28;20524;-80
2021/10/30 11:43:28;;;;;;;1.52;0.80;;;20.90;81.20;;;;;;5039250;28;20040;-76
2021/10/30 11:46:02;;;;;;;4.28;1.02;;;20.90;81.20;;;;;;5037210;28;20496;-83
2021/10/30 11:48:47;;;;;;;4.28;0.90;;;20.90;81.30;;;;;;5046494;28;20104;-81
2021/10/30 11:51:15;;;;;;;3.40;1.23;;;20.80;81.70;;;;;;5035674;28;20033;-82
2021/10/30 11:53:46;;;;;;;2.40;0.98;;;20.90;82.00;;;;;;5048056;28;20067;-79
2021/10/30 11:56:16;;;;;;;5.32;1.00;;;20.90;81.50;;;;;;5038836;28;20025;-79
2021/10/30 11:58:46;;;;;;;3.65;0.88;;;20.90;81.50;;;;;;5035042;28;20116;-78
2021/10/30 12:01:31;;;;;;;2.70;1.20;;;20.80;81.60;;;;;;5036538;28;20098;-77
2021/10/30 12:03:57;;;;;;;17.30;1.08;;;20.80;82.40;;;;;;5039990;28;20025;-78
2021/10/30 12:06:24;;;;;;;8.75;1.30;;;;;;;;;;5045159;28;20037;-77
2021/10/30 12:08:50;;;;;;;5.25;1.23;;;;;;;;;;5038877;28;20080;-76
2021/10/30 12:11:18;;;;;;;3.30;1.30;;;;;;;;;;5041009;28;20041;-78
2021/10/30 12:13:45;;;;;;;2.40;1.15;;;;;;;;;;5044565;28;20029;-79
2021/10/30 12:16:12;;;;;;;6.03;1.33;;;;;;;;;;5047312;28;20112;-79
2021/10/30 12:18:38;;;;;;;3.00;0.95;;;;;;;;;;5046853;28;20033;-80
2021/10/30 12:21:04;;;;;;;3.75;1.00;;;;;;;;;;5046846;28;20029;-76
2021/10/30 12:23:30;;;;;;;3.85;1.10;;;;;;;;;;5047735;28;20085;-78
2021/10/30 12:26:08;;;;;;;3.53;0.80;;;;;;;;;;5048043;28;20044;-78
2021/10/30 12:28:36;;;;;;;5.05;1.33;;;;;;;;;;5047538;28;20021;-77
2021/10/30 12:31:05;;;;;;;2.78;0.75;;;;;;;;;;5046530;28;20030;-80
2021/10/30 12:33:32;;;;;;;4.93;1.00;;;;;;;;;;5047877;28;20104;-79
2021/10/30 12:35:58;;;;;;;4.57;1.05;;;;;;;;;;5035087;28;20061;-78
2021/10/30 12:38:25;;;;;;;4.60;1.27;;;;;;;;;;5037488;28;20187;-79
2021/10/30 12:40:52;;;;;;;4.90;1.00;;;;;;;;;;5039561;28;20029;-81
2021/10/30 12:43:21;;;;;;;3.20;0.90;;;;;;;;;;5046551;28;20036;-79
2021/10/30 12:45:51;;;;;;;3.28;0.90;;;;;;;;;;5047340;28;20052;-78
2021/10/30 12:48:19;;;;;;;3.92;0.80;;;;;;;;;;5046632;28;20037;-81
2021/10/30 12:50:54;;;;;;;2.72;0.90;;;;;;;;;;5046149;28;20399;-79
2021/10/30 12:53:29;;;;;;;4.93;1.20;;;;;;;;;;5047618;28;20025;-84
2021/10/30 12:56:19;;;;;;;4.13;0.80;;;20.30;83.40;;;;;;5047846;28;20104;-88
2021/10/30 12:58:49;;;;;;;2.40;1.00;;;20.30;84.10;;;;;;5049781;28;20033;-83
2021/10/30 13:01:30;;;;;;;4.30;1.05;;;20.40;83.90;;;;;;5047737;28;20029;-79